METAR Data
IDs: Format: Raw Decoded Include TAF

Data at: 0547 UTC 19 Aug 2019

KXNA 190453Z AUTO 16006KT 10SM OVC100 25/19 A2999 RMK AO2 SLP137 T02500194
KXNA 190353Z AUTO 16005KT 10SM OVC100 26/20 A2998 RMK AO2 SLP135 T02560200
KXNA 190253Z 11004KT 10SM OVC100 26/21 A2997 RMK AO2 SLP133 T02610206 53021
KXNA 190153Z 10003KT 10SM CLR 26/21 A2994 RMK AO2 SLP124 T02560211
KXNA 190053Z 07003KT 10SM CLR 27/21 A2992 RMK AO2 SLP117 T02670211
KXNA 182353Z AUTO 00000KT 10SM SCT100 28/21 A2991 RMK AO2 RAE04 SLP111 P0000 60000 T02780206 10294 20233 55000
KXNA 182253Z 18005KT 10SM -RA BKN100 27/20 A2990 RMK AO2 RAB48 SLP110 P0000 T02720200
KXNA 182153Z 18011KT 10SM CLR 28/18 A2990 RMK AO2 SLP109 T02830183
KXNA 182053Z 24007KT 10SM FEW110 27/19 A2991 RMK AO2 LTG DSNT W SLP111 60000 T02720194 56012
KXNA 181953Z 22005KT 10SM CLR 27/19 A2992 RMK AO2 LTG DSNT W SLP114 T02670194
KXNA 181853Z 18013KT 10SM CLR 24/18 A2992 RMK AO2 LTG DSNT E AND SE RAE48 TSE48 SLP116 P0000 T02440183
KXNA 181753Z 20008KT 10SM -TSRA OVC100 25/22 A2995 RMK AO2 LTG DSNT SE-SW RAB20 TSB20 SLP125 P0000 60000 T02500217 10289 20244 58010
KXNA 181724Z 17010KT 10SM -TSRA OVC100 27/22 A2995 RMK AO2 LTG DSNT E-SW RAB20 TSB20 PRESFR P0000 T02670222
KXNA 181709Z 22007KT 10SM VCTS FEW028 27/22 A2998 RMK AO2 LTG DSNT S AND SW T02720222
KXNA 181653Z 23008KT 10SM SCT028 28/22 A2999 RMK AO2 LTG DSNT SW AND W TSB30E50 SLP139 T02780222
KXNA 181632Z 20009KT 2 1/2SM TS HZ FEW065 28/23 A2999 RMK AO2 LTG DSNT SW AND W TSB30 T02830228
KXNA 181553Z 22005KT 10SM CLR 28/23 A2998 RMK AO2 SLP135 T02830228
KXNA 181453Z 18006KT 10SM OVC065 27/21 A2998 RMK AO2 SLP135 60000 T02670211 53009
KXNA 181353Z 10009KT 10SM CLR 26/20 A2994 RMK AO2 RAB07E20 SLP122 P0000 T02560200
KXNA 181315Z 07007KT 10SM -RA SCT027 BKN034 OVC095 24/20 A2996 RMK AO2 RAB07 P0000 T02440200
KXNA 181253Z 05003KT 10SM OVC026 24/21 A2996 RMK AO2 LTG DSNT NE SLP128 T02440206
KXNA 181153Z 35009KT 10SM BKN024 BKN030 OVC070 24/21 A2995 RMK AO2 LTG DSNT NE SLP124 T02440206 10261 20228 53019
KXNA 181053Z 30004KT 10SM CLR 23/20 A2992 RMK AO2 SLP112 T02330200
KXNA 180953Z AUTO 17006KT 10SM CLR 24/20 A2988 RMK AO2 SLP100 T02390200
KXNA 180853Z AUTO 19004KT 10SM CLR 25/20 A2989 RMK AO2 SLP104 T02500200 53000
KXNA 180753Z AUTO 17010KT 10SM CLR 26/20 A2987 RMK AO2 SLP097 T02560200
KXNA 180653Z AUTO 16010KT 10SM CLR 26/19 A2988 RMK AO2 SLP100 T02560194
KXNA 180553Z AUTO 17008KT 10SM CLR 25/20 A2989 RMK AO2 SLP104 T02500200 10311 20250 403330206 50004
KXNA 180453Z AUTO 17008KT 10SM CLR 26/20 A2990 RMK AO2 SLP106 T02560200
KXNA 180353Z AUTO 16010KT 10SM CLR 26/19 A2990 RMK AO2 SLP106 T02610194
KXNA 180253Z 17008KT 10SM CLR 26/20 A2988 RMK AO2 SLP100 T02610200 53008
KXNA 180153Z 14007KT 10SM CLR 28/20 A2986 RMK AO2 SLP093 T02780200
KXNA 180053Z 16006KT 10SM CLR 28/21 A2985 RMK AO2 SLP092 T02830206
KXNA 172353Z 17009KT 10SM CLR 31/21 A2986 RMK AO2 SLP093 T03110206 10333 20300 56012
KXNA 172253Z 17014KT 10SM CLR 32/20 A2986 RMK AO2 SLP096 T03170200
KXNA 172153Z 17010KT 10SM CLR 33/20 A2987 RMK AO2 SLP098 T03280200
KXNA 172053Z 17010KT 10SM CLR 33/21 A2989 RMK AO2 SLP104 T03280206 56020
KXNA 171953Z 15012KT 10SM CLR 32/22 A2991 RMK AO2 SLP110 T03220217
KXNA 171853Z 13009KT 10SM CLR 32/22 A2993 RMK AO2 SLP119 T03170217
KXNA 171753Z 10006KT 10SM CLR 30/22 A2995 RMK AO2 SLP125 T03000217 10306 20217 58016